sensor_id;sensor_type;location;lat;lon;timestamp;P1;durP1;ratioP1;P2;durP2;ratioP2
16520;SDS011;8373;48.110;11.522;2022-11-11T05:04:26;12.20;;;6.17;;
16520;SDS011;8373;48.110;11.522;2022-11-11T05:06:53;11.83;;;6.03;;
16520;SDS011;8373;48.110;11.522;2022-11-11T05:09:37;13.03;;;6.43;;
16520;SDS011;8373;48.110;11.522;2022-11-11T05:12:05;8.87;;;5.93;;
16520;SDS011;8373;48.110;11.522;2022-11-11T05:14:32;12.90;;;5.97;;
16520;SDS011;8373;48.110;11.522;2022-11-11T05:17:26;12.13;;;6.17;;
16520;SDS011;8373;48.110;11.522;2022-11-11T05:20:10;15.70;;;6.83;;
16520;SDS011;8373;48.110;11.522;2022-11-11T05:23:00;12.13;;;5.80;;
16520;SDS011;8373;48.110;11.522;2022-11-11T05:25:27;15.57;;;7.43;;
16520;SDS011;8373;48.110;11.522;2022-11-11T05:27:55;13.07;;;7.40;;
16520;SDS011;8373;48.110;11.522;2022-11-11T05:30:23;17.40;;;8.30;;
16520;SDS011;8373;48.110;11.522;2022-11-11T05:32:53;21.37;;;10.37;;
16520;SDS011;8373;48.110;11.522;2022-11-11T05:35:20;26.80;;;11.33;;
16520;SDS011;8373;48.110;11.522;2022-11-11T05:37:47;30.33;;;13.17;;
16520;SDS011;8373;48.110;11.522;2022-11-11T05:40:35;21.13;;;9.23;;
16520;SDS011;8373;48.110;11.522;2022-11-11T05:43:02;11.67;;;6.97;;
16520;SDS011;8373;48.110;11.522;2022-11-11T05:45:29;10.43;;;6.43;;
16520;SDS011;8373;48.110;11.522;2022-11-11T05:48:01;11.60;;;6.87;;
16520;SDS011;8373;48.110;11.522;2022-11-11T05:50:28;9.93;;;6.40;;
16520;SDS011;8373;48.110;11.522;2022-11-11T05:52:55;12.50;;;6.37;;
16520;SDS011;8373;48.110;11.522;2022-11-11T05:55:22;9.23;;;6.20;;
16520;SDS011;8373;48.110;11.522;2022-11-11T05:57:49;18.23;;;6.33;;
16520;SDS011;8373;48.110;11.522;2022-11-11T06:00:16;13.13;;;6.37;;
16520;SDS011;8373;48.110;11.522;2022-11-11T06:02:43;11.20;;;6.20;;
16520;SDS011;8373;48.110;11.522;2022-11-11T06:05:12;9.87;;;5.70;;
16520;SDS011;8373;48.110;11.522;2022-11-11T06:07:39;11.07;;;6.23;;
16520;SDS011;8373;48.110;11.522;2022-11-11T06:10:06;9.30;;;5.37;;
16520;SDS011;8373;48.110;11.522;2022-11-11T06:12:51;9.50;;;5.50;;
16520;SDS011;8373;48.110;11.522;2022-11-11T06:15:29;10.87;;;6.00;;
16520;SDS011;8373;48.110;11.522;2022-11-11T06:17:57;11.50;;;5.40;;
16520;SDS011;8373;48.110;11.522;2022-11-11T06:20:26;11.90;;;6.30;;
16520;SDS011;8373;48.110;11.522;2022-11-11T06:22:53;8.70;;;5.90;;
16520;SDS011;8373;48.110;11.522;2022-11-11T06:25:23;12.60;;;5.37;;
16520;SDS011;8373;48.110;11.522;2022-11-11T06:28:08;10.73;;;5.93;;
16520;SDS011;8373;48.110;11.522;2022-11-11T06:30:36;9.90;;;5.90;;
16520;SDS011;8373;48.110;11.522;2022-11-11T06:33:03;11.33;;;5.50;;
16520;SDS011;8373;48.110;11.522;2022-11-11T06:35:33;10.00;;;5.63;;
16520;SDS011;8373;48.110;11.522;2022-11-11T06:38:00;9.60;;;5.63;;
16520;SDS011;8373;48.110;11.522;2022-11-11T06:40:27;15.90;;;7.00;;
16520;SDS011;8373;48.110;11.522;2022-11-11T06:42:55;11.83;;;6.23;;
16520;SDS011;8373;48.110;11.522;2022-11-11T06:45:22;9.73;;;5.73;;
16520;SDS011;8373;48.110;11.522;2022-11-11T06:47:49;9.50;;;6.20;;
16520;SDS011;8373;48.110;11.522;2022-11-11T06:50:16;10.03;;;6.53;;
16520;SDS011;8373;48.110;11.522;2022-11-11T06:52:44;11.70;;;6.30;;
16520;SDS011;8373;48.110;11.522;2022-11-11T06:55:12;14.83;;;6.90;;
16520;SDS011;8373;48.110;11.522;2022-11-11T06:57:39;11.80;;;5.80;;
16520;SDS011;8373;48.110;11.522;2022-11-11T07:00:07;10.50;;;5.30;;
16520;SDS011;8373;48.110;11.522;2022-11-11T07:02:34;13.97;;;6.67;;
16520;SDS011;8373;48.110;11.522;2022-11-11T07:05:02;16.90;;;6.33;;
16520;SDS011;8373;48.110;11.522;2022-11-11T07:07:29;14.40;;;7.13;;
16520;SDS011;8373;48.110;11.522;2022-11-11T07:09:58;11.17;;;7.60;;
16520;SDS011;8373;48.110;11.522;2022-11-11T07:12:25;13.57;;;7.17;;
16520;SDS011;8373;48.110;11.522;2022-11-11T07:14:52;11.17;;;6.20;;
16520;SDS011;8373;48.110;11.522;2022-11-11T07:17:19;18.47;;;9.30;;
16520;SDS011;8373;48.110;11.522;2022-11-11T07:19:46;16.30;;;7.93;;
16520;SDS011;8373;48.110;11.522;2022-11-11T07:22:13;12.67;;;7.60;;
16520;SDS011;8373;48.110;11.522;2022-11-11T07:24:40;17.20;;;7.20;;
16520;SDS011;8373;48.110;11.522;2022-11-11T07:27:08;16.23;;;7.80;;
16520;SDS011;8373;48.110;11.522;2022-11-11T07:29:35;17.97;;;9.53;;
16520;SDS011;8373;48.110;11.522;2022-11-11T07:32:02;22.07;;;9.67;;
16520;SDS011;8373;48.110;11.522;2022-11-11T07:34:29;21.53;;;10.53;;
16520;SDS011;8373;48.110;11.522;2022-11-11T07:36:56;17.03;;;7.37;;
16520;SDS011;8373;48.110;11.522;2022-11-11T07:39:24;19.00;;;7.93;;
16520;SDS011;8373;48.110;11.522;2022-11-11T07:41:52;13.37;;;6.70;;
16520;SDS011;8373;48.110;11.522;2022-11-11T07:44:21;17.90;;;7.93;;
16520;SDS011;8373;48.110;11.522;2022-11-11T07:46:48;21.17;;;9.40;;
16520;SDS011;8373;48.110;11.522;2022-11-11T07:49:15;18.77;;;9.00;;
16520;SDS011;8373;48.110;11.522;2022-11-11T07:51:42;16.90;;;9.07;;
16520;SDS011;8373;48.110;11.522;2022-11-11T07:54:08;15.37;;;9.20;;
16520;SDS011;8373;48.110;11.522;2022-11-11T07:56:35;18.67;;;9.20;;
16520;SDS011;8373;48.110;11.522;2022-11-11T07:59:02;18.10;;;9.33;;
16520;SDS011;8373;48.110;11.522;2022-11-11T08:01:31;20.27;;;8.80;;
16520;SDS011;8373;48.110;11.522;2022-11-11T08:03:58;24.60;;;10.77;;
16520;SDS011;8373;48.110;11.522;2022-11-11T08:06:25;21.77;;;9.63;;
16520;SDS011;8373;48.110;11.522;2022-11-11T08:08:52;25.30;;;10.30;;
16520;SDS011;8373;48.110;11.522;2022-11-11T08:11:19;20.53;;;10.53;;
16520;SDS011;8373;48.110;11.522;2022-11-11T08:14:06;20.57;;;10.17;;
16520;SDS011;8373;48.110;11.522;2022-11-11T08:16:34;20.03;;;9.13;;
16520;SDS011;8373;48.110;11.522;2022-11-11T08:19:01;30.13;;;10.23;;
16520;SDS011;8373;48.110;11.522;2022-11-11T08:21:28;26.00;;;9.17;;
16520;SDS011;8373;48.110;11.522;2022-11-11T08:23:55;22.83;;;8.40;;
16520;SDS011;8373;48.110;11.522;2022-11-11T08:26:22;15.60;;;8.07;;
16520;SDS011;8373;48.110;11.522;2022-11-11T08:28:50;24.97;;;9.50;;
16520;SDS011;8373;48.110;11.522;2022-11-11T08:31:18;22.97;;;9.60;;
16520;SDS011;8373;48.110;11.522;2022-11-11T08:33:46;20.23;;;9.07;;
16520;SDS011;8373;48.110;11.522;2022-11-11T08:36:13;18.90;;;8.73;;
16520;SDS011;8373;48.110;11.522;2022-11-11T08:38:40;17.57;;;8.00;;
16520;SDS011;8373;48.110;11.522;2022-11-11T08:41:07;21.43;;;9.50;;
16520;SDS011;8373;48.110;11.522;2022-11-11T08:43:34;20.90;;;11.20;;
16520;SDS011;8373;48.110;11.522;2022-11-11T08:46:02;28.37;;;9.30;;
16520;SDS011;8373;48.110;11.522;2022-11-11T08:48:30;41.23;;;9.90;;
16520;SDS011;8373;48.110;11.522;2022-11-11T08:50:58;21.50;;;9.20;;
16520;SDS011;8373;48.110;11.522;2022-11-11T08:53:26;33.20;;;9.07;;
16520;SDS011;8373;48.110;11.522;2022-11-11T08:55:53;26.70;;;8.70;;
16520;SDS011;8373;48.110;11.522;2022-11-11T08:58:20;12.93;;;8.40;;
16520;SDS011;8373;48.110;11.522;2022-11-11T09:00:47;28.90;;;8.10;;
16520;SDS011;8373;48.110;11.522;2022-11-11T09:03:14;19.03;;;9.10;;
16520;SDS011;8373;48.110;11.522;2022-11-11T09:05:41;17.43;;;9.30;;
16520;SDS011;8373;48.110;11.522;2022-11-11T09:08:12;13.97;;;7.50;;
16520;SDS011;8373;48.110;11.522;2022-11-11T09:10:39;14.03;;;7.47;;
16520;SDS011;8373;48.110;11.522;2022-11-11T09:13:06;16.27;;;7.33;;
16520;SDS011;8373;48.110;11.522;2022-11-11T09:15:34;10.93;;;6.43;;
16520;SDS011;8373;48.110;11.522;2022-11-11T09:18:01;17.57;;;8.03;;
16520;SDS011;8373;48.110;11.522;2022-11-11T09:20:28;15.57;;;6.63;;
16520;SDS011;8373;48.110;11.522;2022-11-11T09:22:55;13.10;;;6.73;;
16520;SDS011;8373;48.110;11.522;2022-11-11T09:25:24;10.17;;;6.33;;
16520;SDS011;8373;48.110;11.522;2022-11-11T09:27:54;9.90;;;5.20;;
16520;SDS011;8373;48.110;11.522;2022-11-11T09:30:21;11.50;;;6.40;;
16520;SDS011;8373;48.110;11.522;2022-11-11T09:32:49;13.17;;;5.90;;
16520;SDS011;8373;48.110;11.522;2022-11-11T09:35:16;12.97;;;5.87;;
16520;SDS011;8373;48.110;11.522;2022-11-11T09:37:51;8.70;;;4.27;;
16520;SDS011;8373;48.110;11.522;2022-11-11T09:40:20;10.70;;;4.77;;
16520;SDS011;8373;48.110;11.522;2022-11-11T09:42:55;7.30;;;4.10;;
16520;SDS011;8373;48.110;11.522;2022-11-11T09:45:33;16.33;;;4.30;;
16520;SDS011;8373;48.110;11.522;2022-11-11T09:48:16;8.40;;;4.00;;
16520;SDS011;8373;48.110;11.522;2022-11-11T09:50:59;7.50;;;4.70;;
16520;SDS011;8373;48.110;11.522;2022-11-11T09:53:31;7.10;;;3.83;;
16520;SDS011;8373;48.110;11.522;2022-11-11T09:56:02;7.07;;;3.77;;
16520;SDS011;8373;48.110;11.522;2022-11-11T09:58:36;8.43;;;3.73;;
16520;SDS011;8373;48.110;11.522;2022-11-11T10:01:07;6.50;;;3.50;;
16520;SDS011;8373;48.110;11.522;2022-11-11T10:03:38;6.20;;;3.20;;
16520;SDS011;8373;48.110;11.522;2022-11-11T10:06:09;10.67;;;3.90;;
16520;SDS011;8373;48.110;11.522;2022-11-11T10:08:43;7.33;;;3.63;;
16520;SDS011;8373;48.110;11.522;2022-11-11T10:11:17;10.63;;;3.70;;
16520;SDS011;8373;48.110;11.522;2022-11-11T10:13:52;5.67;;;3.27;;
16520;SDS011;8373;48.110;11.522;2022-11-11T10:16:23;6.70;;;4.00;;
16520;SDS011;8373;48.110;11.522;2022-11-11T10:18:58;9.03;;;3.80;;
16520;SDS011;8373;48.110;11.522;2022-11-11T10:21:35;8.50;;;3.90;;
16520;SDS011;8373;48.110;11.522;2022-11-11T10:24:10;7.63;;;3.97;;
16520;SDS011;8373;48.110;11.522;2022-11-11T10:26:41;8.43;;;3.70;;
16520;SDS011;8373;48.110;11.522;2022-11-11T10:29:14;8.37;;;4.00;;
16520;SDS011;8373;48.110;11.522;2022-11-11T10:31:44;12.40;;;3.83;;
16520;SDS011;8373;48.110;11.522;2022-11-11T10:34:17;8.90;;;3.60;;
16520;SDS011;8373;48.110;11.522;2022-11-11T10:36:48;7.73;;;3.40;;
16520;SDS011;8373;48.110;11.522;2022-11-11T10:39:20;15.73;;;4.03;;
16520;SDS011;8373;48.110;11.522;2022-11-11T10:41:51;9.60;;;3.87;;
16520;SDS011;8373;48.110;11.522;2022-11-11T10:44:20;10.90;;;4.90;;
16520;SDS011;8373;48.110;11.522;2022-11-11T10:46:53;7.00;;;3.20;;
16520;SDS011;8373;48.110;11.522;2022-11-11T10:49:28;7.73;;;3.63;;
16520;SDS011;8373;48.110;11.522;2022-11-11T10:51:58;9.30;;;3.60;;
16520;SDS011;8373;48.110;11.522;2022-11-11T10:54:31;6.23;;;3.33;;
16520;SDS011;8373;48.110;11.522;2022-11-11T10:57:02;7.87;;;3.73;;
16520;SDS011;8373;48.110;11.522;2022-11-11T10:59:38;9.73;;;3.50;;
16520;SDS011;8373;48.110;11.522;2022-11-11T11:02:12;12.93;;;4.20;;
16520;SDS011;8373;48.110;11.522;2022-11-11T11:04:45;8.87;;;4.10;;
16520;SDS011;8373;48.110;11.522;2022-11-11T11:07:16;9.23;;;4.17;;
16520;SDS011;8373;48.110;11.522;2022-11-11T11:09:49;10.83;;;4.67;;
16520;SDS011;8373;48.110;11.522;2022-11-11T11:12:21;7.73;;;4.00;;
16520;SDS011;8373;48.110;11.522;2022-11-11T11:14:54;9.73;;;3.80;;
16520;SDS011;8373;48.110;11.522;2022-11-11T11:17:28;10.23;;;4.33;;
16520;SDS011;8373;48.110;11.522;2022-11-11T11:20:11;9.47;;;5.00;;
16520;SDS011;8373;48.110;11.522;2022-11-11T11:22:43;8.40;;;4.40;;
16520;SDS011;8373;48.110;11.522;2022-11-11T11:25:12;7.90;;;4.40;;
16520;SDS011;8373;48.110;11.522;2022-11-11T11:27:40;7.60;;;4.17;;
16520;SDS011;8373;48.110;11.522;2022-11-11T11:30:12;9.60;;;5.00;;
16520;SDS011;8373;48.110;11.522;2022-11-11T11:32:40;8.83;;;4.13;;
16520;SDS011;8373;48.110;11.522;2022-11-11T11:35:09;7.10;;;4.33;;
16520;SDS011;8373;48.110;11.522;2022-11-11T11:37:54;7.93;;;4.33;;
16520;SDS011;8373;48.110;11.522;2022-11-11T11:40:21;8.30;;;5.00;;
16520;SDS011;8373;48.110;11.522;2022-11-11T11:42:47;18.03;;;4.60;;
16520;SDS011;8373;48.110;11.522;2022-11-11T11:45:18;7.65;;;4.60;;
16520;SDS011;8373;48.110;11.522;2022-11-11T11:47:50;8.87;;;4.50;;
16520;SDS011;8373;48.110;11.522;2022-11-11T11:50:34;12.83;;;4.33;;
16520;SDS011;8373;48.110;11.522;2022-11-11T11:53:22;12.90;;;5.10;;
16520;SDS011;8373;48.110;11.522;2022-11-11T11:55:59;15.03;;;5.40;;
16520;SDS011;8373;48.110;11.522;2022-11-11T11:58:36;7.20;;;4.40;;
16520;SDS011;8373;48.110;11.522;2022-11-11T12:01:18;11.00;;;6.00;;
16520;SDS011;8373;48.110;11.522;2022-11-11T12:03:57;14.00;;;6.47;;
16520;SDS011;8373;48.110;11.522;2022-11-11T12:06:42;13.30;;;7.00;;
16520;SDS011;8373;48.110;11.522;2022-11-11T12:09:22;13.90;;;8.13;;
16520;SDS011;8373;48.110;11.522;2022-11-11T12:11:57;16.33;;;7.37;;
16520;SDS011;8373;48.110;11.522;2022-11-11T12:14:39;16.63;;;7.47;;
16520;SDS011;8373;48.110;11.522;2022-11-11T12:17:25;13.97;;;8.00;;
16520;SDS011;8373;48.110;11.522;2022-11-11T12:20:01;20.57;;;10.70;;
16520;SDS011;8373;48.110;11.522;2022-11-11T12:22:40;15.23;;;9.97;;
16520;SDS011;8373;48.110;11.522;2022-11-11T12:25:16;25.40;;;9.93;;
16520;SDS011;8373;48.110;11.522;2022-11-11T12:27:53;21.23;;;11.90;;
16520;SDS011;8373;48.110;11.522;2022-11-11T12:30:27;21.97;;;11.03;;
16520;SDS011;8373;48.110;11.522;2022-11-11T12:33:09;18.20;;;10.97;;
16520;SDS011;8373;48.110;11.522;2022-11-11T12:35:56;29.80;;;11.47;;
16520;SDS011;8373;48.110;11.522;2022-11-11T12:38:43;22.40;;;12.17;;
16520;SDS011;8373;48.110;11.522;2022-11-11T12:41:22;23.40;;;12.00;;
16520;SDS011;8373;48.110;11.522;2022-11-11T12:44:02;28.43;;;11.53;;
16520;SDS011;8373;48.110;11.522;2022-11-11T12:46:36;21.30;;;11.10;;
16520;SDS011;8373;48.110;11.522;2022-11-11T12:49:18;27.23;;;12.60;;
16520;SDS011;8373;48.110;11.522;2022-11-11T12:52:11;17.87;;;10.33;;
16520;SDS011;8373;48.110;11.522;2022-11-11T12:54:55;34.43;;;12.67;;
16520;SDS011;8373;48.110;11.522;2022-11-11T12:57:35;21.03;;;11.80;;
16520;SDS011;8373;48.110;11.522;2022-11-11T13:00:11;28.83;;;11.20;;
16520;SDS011;8373;48.110;11.522;2022-11-11T13:03:03;29.10;;;12.03;;
16520;SDS011;8373;48.110;11.522;2022-11-11T13:05:42;25.03;;;12.33;;
16520;SDS011;8373;48.110;11.522;2022-11-11T13:08:24;22.67;;;10.20;;
16520;SDS011;8373;48.110;11.522;2022-11-11T13:11:20;25.80;;;11.50;;
16520;SDS011;8373;48.110;11.522;2022-11-11T13:13:58;21.67;;;12.50;;
16520;SDS011;8373;48.110;11.522;2022-11-11T13:16:48;22.83;;;10.90;;
16520;SDS011;8373;48.110;11.522;2022-11-11T13:19:16;17.77;;;9.60;;
16520;SDS011;8373;48.110;11.522;2022-11-11T13:21:52;22.13;;;10.30;;
16520;SDS011;8373;48.110;11.522;2022-11-11T13:24:23;21.10;;;9.83;;
16520;SDS011;8373;48.110;11.522;2022-11-11T13:26:53;18.43;;;10.53;;
16520;SDS011;8373;48.110;11.522;2022-11-11T13:29:31;22.70;;;9.43;;
16520;SDS011;8373;48.110;11.522;2022-11-11T13:32:15;21.70;;;8.03;;
16520;SDS011;8373;48.110;11.522;2022-11-11T13:34:45;24.13;;;9.37;;
16520;SDS011;8373;48.110;11.522;2022-11-11T13:37:19;24.10;;;9.53;;
16520;SDS011;8373;48.110;11.522;2022-11-11T13:39:52;19.50;;;10.30;;
16520;SDS011;8373;48.110;11.522;2022-11-11T13:42:25;18.33;;;8.90;;
16520;SDS011;8373;48.110;11.522;2022-11-11T13:44:56;17.07;;;8.93;;
16520;SDS011;8373;48.110;11.522;2022-11-11T13:47:26;21.30;;;9.50;;
16520;SDS011;8373;48.110;11.522;2022-11-11T13:49:58;15.47;;;8.77;;
16520;SDS011;8373;48.110;11.522;2022-11-11T13:52:32;26.60;;;9.27;;
16520;SDS011;8373;48.110;11.522;2022-11-11T13:55:02;20.10;;;9.37;;
16520;SDS011;8373;48.110;11.522;2022-11-11T13:57:31;22.73;;;10.80;;
16520;SDS011;8373;48.110;11.522;2022-11-11T14:00:00;21.80;;;10.27;;
16520;SDS011;8373;48.110;11.522;2022-11-11T14:02:30;25.73;;;10.47;;
16520;SDS011;8373;48.110;11.522;2022-11-11T14:07:49;23.17;;;9.33;;
16520;SDS011;8373;48.110;11.522;2022-11-11T14:16:01;18.63;;;10.33;;
16520;SDS011;8373;48.110;11.522;2022-11-11T14:18:35;19.93;;;10.30;;
16520;SDS011;8373;48.110;11.522;2022-11-11T14:21:07;24.63;;;11.70;;
16520;SDS011;8373;48.110;11.522;2022-11-11T14:23:37;26.20;;;11.20;;
16520;SDS011;8373;48.110;11.522;2022-11-11T14:26:18;24.60;;;11.30;;
16520;SDS011;8373;48.110;11.522;2022-11-11T14:28:53;18.17;;;11.00;;
16520;SDS011;8373;48.110;11.522;2022-11-11T14:34:17;15.73;;;9.20;;
16520;SDS011;8373;48.110;11.522;2022-11-11T14:36:52;24.43;;;9.13;;
16520;SDS011;8373;48.110;11.522;2022-11-11T14:39:31;13.97;;;8.00;;
16520;SDS011;8373;48.110;11.522;2022-11-11T14:42:02;26.90;;;9.80;;
16520;SDS011;8373;48.110;11.522;2022-11-11T14:44:40;22.50;;;8.17;;
16520;SDS011;8373;48.110;11.522;2022-11-11T14:47:18;21.90;;;8.10;;
16520;SDS011;8373;48.110;11.522;2022-11-11T14:49:57;20.00;;;8.13;;
16520;SDS011;8373;48.110;11.522;2022-11-11T14:52:26;15.67;;;8.77;;
16520;SDS011;8373;48.110;11.522;2022-11-11T14:57:45;18.73;;;8.90;;
16520;SDS011;8373;48.110;11.522;2022-11-11T15:00:14;16.40;;;8.80;;
16520;SDS011;8373;48.110;11.522;2022-11-11T15:02:45;16.70;;;8.80;;
16520;SDS011;8373;48.110;11.522;2022-11-11T15:05:16;12.70;;;7.07;;
16520;SDS011;8373;48.110;11.522;2022-11-11T15:10:43;15.80;;;8.97;;
16520;SDS011;8373;48.110;11.522;2022-11-11T15:13:27;18.80;;;10.27;;
16520;SDS011;8373;48.110;11.522;2022-11-11T15:16:13;27.60;;;12.43;;
16520;SDS011;8373;48.110;11.522;2022-11-11T15:19:02;33.60;;;12.77;;
16520;SDS011;8373;48.110;11.522;2022-11-11T15:21:42;23.73;;;10.37;;
16520;SDS011;8373;48.110;11.522;2022-11-11T15:24:20;20.20;;;10.80;;
16520;SDS011;8373;48.110;11.522;2022-11-11T15:26:59;18.17;;;9.50;;
16520;SDS011;8373;48.110;11.522;2022-11-11T15:29:42;24.93;;;10.87;;
16520;SDS011;8373;48.110;11.522;2022-11-11T15:32:20;23.43;;;9.07;;
16520;SDS011;8373;48.110;11.522;2022-11-11T15:34:54;17.93;;;9.50;;
16520;SDS011;8373;48.110;11.522;2022-11-11T15:37:38;21.17;;;11.10;;
16520;SDS011;8373;48.110;11.522;2022-11-11T15:40:15;37.03;;;16.23;;
16520;SDS011;8373;48.110;11.522;2022-11-11T15:42:56;52.23;;;16.57;;
16520;SDS011;8373;48.110;11.522;2022-11-11T15:45:31;32.40;;;15.70;;
16520;SDS011;8373;48.110;11.522;2022-11-11T15:47:59;31.30;;;16.97;;
16520;SDS011;8373;48.110;11.522;2022-11-11T15:50:29;28.20;;;14.70;;
16520;SDS011;8373;48.110;11.522;2022-11-11T15:53:00;34.00;;;17.40;;
16520;SDS011;8373;48.110;11.522;2022-11-11T15:55:28;37.53;;;17.30;;
16520;SDS011;8373;48.110;11.522;2022-11-11T15:58:08;34.10;;;15.80;;
16520;SDS011;8373;48.110;11.522;2022-11-11T16:00:36;36.53;;;17.07;;
16520;SDS011;8373;48.110;11.522;2022-11-11T16:03:04;29.20;;;15.00;;
16520;SDS011;8373;48.110;11.522;2022-11-11T16:05:31;30.20;;;15.97;;
16520;SDS011;8373;48.110;11.522;2022-11-11T16:08:01;30.23;;;16.20;;
16520;SDS011;8373;48.110;11.522;2022-11-11T16:10:33;31.60;;;17.47;;
16520;SDS011;8373;48.110;11.522;2022-11-11T16:13:02;26.97;;;16.00;;
16520;SDS011;8373;48.110;11.522;2022-11-11T16:15:38;38.73;;;16.10;;
16520;SDS011;8373;48.110;11.522;2022-11-11T16:18:10;28.57;;;15.50;;
16520;SDS011;8373;48.110;11.522;2022-11-11T16:20:43;42.77;;;20.20;;
16520;SDS011;8373;48.110;11.522;2022-11-11T16:23:15;36.87;;;19.90;;
16520;SDS011;8373;48.110;11.522;2022-11-11T16:25:44;40.00;;;20.40;;
16520;SDS011;8373;48.110;11.522;2022-11-11T16:28:12;39.50;;;18.30;;
16520;SDS011;8373;48.110;11.522;2022-11-11T16:30:41;41.03;;;18.97;;
16520;SDS011;8373;48.110;11.522;2022-11-11T16:33:20;33.63;;;17.50;;
16520;SDS011;8373;48.110;11.522;2022-11-11T16:36:08;41.43;;;17.73;;
16520;SDS011;8373;48.110;11.522;2022-11-11T16:38:35;45.67;;;17.07;;
16520;SDS011;8373;48.110;11.522;2022-11-11T16:41:04;36.33;;;17.23;;
16520;SDS011;8373;48.110;11.522;2022-11-11T16:43:48;34.20;;;16.90;;
16520;SDS011;8373;48.110;11.522;2022-11-11T16:46:26;44.23;;;17.30;;
16520;SDS011;8373;48.110;11.522;2022-11-11T16:49:12;36.80;;;19.80;;
16520;SDS011;8373;48.110;11.522;2022-11-11T16:51:49;56.93;;;21.10;;
16520;SDS011;8373;48.110;11.522;2022-11-11T16:54:17;47.40;;;20.90;;
16520;SDS011;8373;48.110;11.522;2022-11-11T16:56:48;42.27;;;20.23;;
16520;SDS011;8373;48.110;11.522;2022-11-11T16:59:17;55.47;;;25.40;;
16520;SDS011;8373;48.110;11.522;2022-11-11T17:01:48;62.00;;;27.90;;
16520;SDS011;8373;48.110;11.522;2022-11-11T17:04:15;62.23;;;27.37;;
16520;SDS011;8373;48.110;11.522;2022-11-11T17:06:46;60.37;;;29.87;;
16520;SDS011;8373;48.110;11.522;2022-11-11T17:09:28;64.20;;;26.70;;
16520;SDS011;8373;48.110;11.522;2022-11-11T17:12:02;49.20;;;25.07;;
16520;SDS011;8373;48.110;11.522;2022-11-11T17:14:29;65.30;;;29.07;;
16520;SDS011;8373;48.110;11.522;2022-11-11T17:17:00;70.50;;;30.53;;
16520;SDS011;8373;48.110;11.522;2022-11-11T17:19:29;59.30;;;30.77;;
16520;SDS011;8373;48.110;11.522;2022-11-11T17:22:03;77.07;;;31.63;;
16520;SDS011;8373;48.110;11.522;2022-11-11T17:24:31;68.30;;;31.03;;
16520;SDS011;8373;48.110;11.522;2022-11-11T17:26:58;60.13;;;29.70;;
16520;SDS011;8373;48.110;11.522;2022-11-11T17:29:25;59.40;;;26.50;;
16520;SDS011;8373;48.110;11.522;2022-11-11T17:31:52;48.80;;;24.43;;
16520;SDS011;8373;48.110;11.522;2022-11-11T17:34:20;58.40;;;23.90;;
16520;SDS011;8373;48.110;11.522;2022-11-11T17:36:47;49.93;;;24.67;;
16520;SDS011;8373;48.110;11.522;2022-11-11T17:39:14;41.40;;;22.83;;
16520;SDS011;8373;48.110;11.522;2022-11-11T17:41:41;46.30;;;23.93;;
16520;SDS011;8373;48.110;11.522;2022-11-11T17:44:08;62.77;;;31.10;;
16520;SDS011;8373;48.110;11.522;2022-11-11T17:46:35;84.10;;;36.47;;
16520;SDS011;8373;48.110;11.522;2022-11-11T17:49:02;56.20;;;24.70;;
16520;SDS011;8373;48.110;11.522;2022-11-11T17:51:30;50.80;;;24.50;;
16520;SDS011;8373;48.110;11.522;2022-11-11T17:53:57;52.87;;;23.50;;
16520;SDS011;8373;48.110;11.522;2022-11-11T17:56:24;51.07;;;23.93;;
16520;SDS011;8373;48.110;11.522;2022-11-11T17:58:51;43.90;;;24.07;;
16520;SDS011;8373;48.110;11.522;2022-11-11T18:01:19;58.87;;;27.07;;
16520;SDS011;8373;48.110;11.522;2022-11-11T18:03:46;63.17;;;28.47;;
16520;SDS011;8373;48.110;11.522;2022-11-11T18:06:13;55.43;;;26.10;;
16520;SDS011;8373;48.110;11.522;2022-11-11T18:08:41;50.80;;;25.53;;
16520;SDS011;8373;48.110;11.522;2022-11-11T18:11:08;49.07;;;26.07;;
16520;SDS011;8373;48.110;11.522;2022-11-11T18:13:35;52.40;;;24.93;;
16520;SDS011;8373;48.110;11.522;2022-11-11T18:16:03;60.90;;;28.43;;
16520;SDS011;8373;48.110;11.522;2022-11-11T18:18:30;56.57;;;26.10;;
16520;SDS011;8373;48.110;11.522;2022-11-11T18:21:01;54.20;;;27.00;;
16520;SDS011;8373;48.110;11.522;2022-11-11T18:23:30;53.43;;;25.70;;
16520;SDS011;8373;48.110;11.522;2022-11-11T18:25:59;58.23;;;26.87;;
16520;SDS011;8373;48.110;11.522;2022-11-11T18:28:29;65.70;;;34.17;;
16520;SDS011;8373;48.110;11.522;2022-11-11T18:31:01;84.77;;;44.03;;
16520;SDS011;8373;48.110;11.522;2022-11-11T18:33:29;57.00;;;32.07;;
16520;SDS011;8373;48.110;11.522;2022-11-11T18:36:01;54.50;;;28.27;;
16520;SDS011;8373;48.110;11.522;2022-11-11T18:38:29;52.83;;;25.37;;
16520;SDS011;8373;48.110;11.522;2022-11-11T18:41:01;55.07;;;26.50;;
16520;SDS011;8373;48.110;11.522;2022-11-11T18:43:32;54.43;;;26.87;;
16520;SDS011;8373;48.110;11.522;2022-11-11T18:46:04;56.53;;;25.73;;
16520;SDS011;8373;48.110;11.522;2022-11-11T18:48:35;45.23;;;25.53;;
16520;SDS011;8373;48.110;11.522;2022-11-11T18:51:03;46.93;;;24.43;;
16520;SDS011;8373;48.110;11.522;2022-11-11T18:53:30;49.80;;;22.57;;
16520;SDS011;8373;48.110;11.522;2022-11-11T18:56:04;53.73;;;21.97;;
16520;SDS011;8373;48.110;11.522;2022-11-11T18:58:32;43.27;;;20.83;;
16520;SDS011;8373;48.110;11.522;2022-11-11T19:01:04;52.47;;;23.57;;
16520;SDS011;8373;48.110;11.522;2022-11-11T19:03:33;50.90;;;22.70;;
16520;SDS011;8373;48.110;11.522;2022-11-11T19:06:00;45.30;;;23.37;;
16520;SDS011;8373;48.110;11.522;2022-11-11T19:08:28;40.80;;;22.53;;
16520;SDS011;8373;48.110;11.522;2022-11-11T19:10:56;49.17;;;26.80;;
16520;SDS011;8373;48.110;11.522;2022-11-11T19:13:24;52.93;;;25.30;;
16520;SDS011;8373;48.110;11.522;2022-11-11T19:15:51;46.10;;;25.83;;
16520;SDS011;8373;48.110;11.522;2022-11-11T19:18:19;61.87;;;26.47;;
16520;SDS011;8373;48.110;11.522;2022-11-11T19:20:46;59.70;;;27.00;;
16520;SDS011;8373;48.110;11.522;2022-11-11T19:23:14;52.83;;;27.63;;
16520;SDS011;8373;48.110;11.522;2022-11-11T19:25:41;54.07;;;28.60;;
16520;SDS011;8373;48.110;11.522;2022-11-11T19:28:08;70.03;;;32.87;;
16520;SDS011;8373;48.110;11.522;2022-11-11T19:30:37;76.10;;;32.40;;
16520;SDS011;8373;48.110;11.522;2022-11-11T19:33:04;69.73;;;33.60;;
16520;SDS011;8373;48.110;11.522;2022-11-11T19:35:31;67.23;;;33.97;;
16520;SDS011;8373;48.110;11.522;2022-11-11T19:37:58;72.70;;;36.00;;
16520;SDS011;8373;48.110;11.522;2022-11-11T19:40:25;68.47;;;33.57;;
16520;SDS011;8373;48.110;11.522;2022-11-11T19:42:52;98.63;;;40.90;;
16520;SDS011;8373;48.110;11.522;2022-11-11T19:45:19;76.63;;;37.83;;
16520;SDS011;8373;48.110;11.522;2022-11-11T19:47:48;73.93;;;35.43;;
16520;SDS011;8373;48.110;11.522;2022-11-11T19:50:16;75.60;;;37.63;;
16520;SDS011;8373;48.110;11.522;2022-11-11T19:52:43;73.87;;;35.17;;
16520;SDS011;8373;48.110;11.522;2022-11-11T19:55:10;60.83;;;29.23;;
16520;SDS011;8373;48.110;11.522;2022-11-11T19:57:37;70.43;;;31.30;;
16520;SDS011;8373;48.110;11.522;2022-11-11T20:00:05;68.67;;;29.97;;
16520;SDS011;8373;48.110;11.522;2022-11-11T20:02:33;59.20;;;30.43;;
16520;SDS011;8373;48.110;11.522;2022-11-11T20:05:02;62.47;;;28.97;;
16520;SDS011;8373;48.110;11.522;2022-11-11T20:07:33;62.80;;;31.83;;
16520;SDS011;8373;48.110;11.522;2022-11-11T20:10:00;67.53;;;29.83;;
16520;SDS011;8373;48.110;11.522;2022-11-11T20:12:27;67.30;;;32.20;;
16520;SDS011;8373;48.110;11.522;2022-11-11T20:14:55;63.57;;;30.43;;
16520;SDS011;8373;48.110;11.522;2022-11-11T20:17:22;44.87;;;25.53;;